Blue Oak Ranch Reserve, California Weather observations

Data are for 10 minute period ending at time listed.
 Day   Time   Solar   Ave.   Ave.  Ave.  Vector  Max.   Baro.   Total    
  of    of     Rad.   Air    Rel.  Wind   Wind   Wind  Press.  Precip.   
Year   Day            Temp.  Hum.  Speed  Dir.   Gust                    
2014   (PST)  Kw/m2    F      %     mph   deg.    mph    mb.     in.     
-------------------------------------------------------------------------
 113    9:00   0.64   53.1    54    5.8   248    10.9   951.4    0.00 
 113    9:10   0.50   53.1    53    6.1   276    11.5   951.4    0.00 
 113    9:20   0.70   53.9    52    7.6   282    11.8   951.4    0.00 
 113    9:30   0.71   54.5    52    7.2   282    11.6   951.4    0.00 
 113    9:40   0.73   55.7    49    7.1   284    10.4   951.3    0.00 
 113    9:50   0.77   56.3    48    5.9   276    10.9   951.3    0.00 
 113   10:00   0.76   56.5    50    7.1   270    12.4   951.3    0.00 
 113   10:10   0.80   56.5    49    6.6   269    11.5   951.3    0.00 
 113   10:20   0.81   57.8    48    5.6   278    10.7   951.3    0.00 
 113   10:30   0.81   57.7    49    7.7   280    13.3   951.3    0.00 
 113   10:40   0.82   57.5    49    7.8   285    13.8   951.4    0.00 
 113   10:50   0.85   57.8    48    7.9   290    14.8   951.6    0.00 
 113   11:00   0.83   57.5    47    8.5   286    15.4   951.6    0.00 
 113   11:10   0.84   57.0    48    9.3   287    16.0   951.6    0.00 
 113   11:20   0.87   57.6    49    9.4   294    16.1   951.5    0.00 
 113   11:30   0.88   57.8    48    8.1   277    15.1   951.4    0.00 
 113   11:40   0.87   57.7    49    7.6   280    15.9   951.4    0.00 
 113   11:50   0.90   58.0    49    9.8   287    16.7   951.3    0.00 
 113   12:00   0.89   57.7    48    9.2   296    17.0   951.3    0.00 
 113   12:10   0.89   57.8    48    8.7   282    15.4   951.2    0.00 
 113   12:20   0.89   57.8    47    7.4   302    13.8   951.2    0.00 
 113   12:30   0.89   58.3    46    7.9   301    13.6   951.3    0.00 
 113   12:40   0.89   58.5    45    7.1   288    17.5   951.3    0.00 
 113   12:50   0.87   58.6    45    7.8   305    16.4   951.3    0.00 
 113   13:00   0.88   59.1    45    7.4   287    16.1   951.3    0.00 
 113   13:10   0.88   59.3    45   10.2   285    16.2   951.2    0.00 
 113   13:20   0.86   59.4    47    8.0   288    17.3   951.2    0.00 
 113   13:30   0.85   59.5    47   11.1   285    18.4   951.3    0.00 
 113   13:40   0.84   59.2    47   10.0   276    17.8   951.3    0.00 
 113   13:50   0.83   59.2    48    9.3   287    16.4   951.2    0.00 
 113   14:00   0.81   59.5    49    7.9   280    13.1   951.2    0.00 
 113   14:10   0.80   59.8    48    8.1   268    15.3   951.2    0.00 
 113   14:20   0.78   60.0    48    8.0   278    16.0   951.2    0.00 
 113   14:30   0.76   60.2    48    8.9   286    15.0   951.1    0.00 
 113   14:40   0.74   60.1    47    7.8   286    12.6   950.9    0.00 
 113   14:50   0.72   60.2    48    8.7   297    15.9   950.8    0.00 
 113   15:00   0.69   59.1    49    8.4   310    14.0   950.7    0.00 
 113   15:10   0.67   59.8    49    9.5   288    17.0   950.7    0.00 
 113   15:20   0.64   59.8    49    8.3   290    15.7   950.6    0.00 
 113   15:30   0.61   59.6    49    7.1   288    16.2   950.5    0.00 
 113   15:40   0.59   59.7    49    7.8   274    12.1   950.5    0.00 
 113   15:50   0.56   59.4    49    8.2   277    14.1   950.5    0.00 
 113   16:00   0.54   59.8    50    7.8   292    12.6   950.5    0.00 
 113   16:10   0.51   60.2    50    7.4   274    14.8   950.5    0.00 
 113   16:20   0.47   59.8    51    8.0   274    13.8   950.5    0.00 
 113   16:30   0.43   59.1    53    8.3   280    14.2   950.5    0.00 
 113   16:40   0.39   59.1    53    7.4   276    12.1   950.4    0.00 
 113   16:50   0.36   58.7    53    8.4   266    12.8   950.4    0.00 
 113   17:00   0.33   58.0    54    8.9   270    15.1   950.4    0.00 
 113   17:10   0.29   57.5    55    8.3   300    13.0   950.4    0.00 
 113   17:20   0.23   57.4    55    8.0   288    12.3   950.4    0.00 
 113   17:30   0.22   57.0    55    7.8   293    12.1   950.4    0.00 
 113   17:40   0.18   56.6    55    8.0   290    12.9   950.4    0.00 
 113   17:50   0.15   55.3    58    7.9   295    13.4   950.5    0.00 
 113   18:00   0.12   55.0    59    6.7   292    10.4   950.5    0.00 
 113   18:10   0.10   54.4    60    5.7   296    12.2   950.6    0.00 
 113   18:20   0.06   53.2    63    6.7   289    10.2   950.7    0.00 
 113   18:30   0.03   51.5    67    5.9   279    10.9   950.8    0.00 
 113   18:40   0.01   50.2    72    4.1   275     7.1   950.9    0.00 
 113   18:50   0.01   48.9    76    4.3   308     6.6   950.9    0.00 
 113   19:00   0.01   48.1    78    1.9   346     5.4   950.9    0.00 
 113   19:10   0.00   47.5    80    3.7   306     5.5   951.0    0.00 
 113   19:20   0.00   47.1    82    4.7   311     6.4   951.1    0.00 
 113   19:30   0.00   46.4    83    3.7   307     5.9   951.1    0.00 
 113   19:40   0.00   45.6    86    4.2   292     6.2   951.2    0.00 
 113   19:50   0.00   45.7    87    1.5   281     2.5   951.3    0.00 
 113   20:00   0.00   45.6    87    1.4   232     2.3   951.3    0.00 
 113   20:10   0.00   45.4    88    1.0   154     2.3   951.5    0.00 
 113   20:20   0.00   45.3    88    0.8    74     2.1   951.5    0.00 
 113   20:30   0.00   45.5    89    0.8    48     1.7   951.5    0.00 
 113   20:40   0.00   45.7    89    1.8    29     2.9   951.6    0.00 
 113   20:50   0.00   45.2    89    1.4    52     2.2   951.6    0.00 
 113   21:00   0.00   44.6    90    1.4    28     2.2   951.6    0.00 
 113   21:10   0.00   44.1    91    0.6   317     2.0   951.7    0.00 
 113   21:20   0.00   43.4    91    1.5    82     3.4   951.7    0.00 
 113   21:30   0.00   42.9    92    0.3    11     1.7   951.6    0.00 
 113   21:40   0.00   42.6    92    0.8   310     1.9   951.5    0.00 
 113   21:50   0.00   42.4    93    2.6   339     5.1   951.4    0.00 
 113   22:00   0.00   42.0    93    1.8   350     3.4   951.4    0.00 
 113   22:10   0.00   42.2    94    3.3   286     5.4   951.4    0.00 
 113   22:20   0.00   42.7    94    3.0   297     7.5   951.4    0.00 
 113   22:30   0.00   43.7    92    1.6   322     4.3   951.5    0.00 
 113   22:40   0.00   44.5    90    2.4    20     5.2   951.4    0.00 
 113   22:50   0.00   43.9    88    2.2   310     3.9   951.4    0.00 
 113   23:00   0.00   44.1    91    2.0   348     5.0   951.5    0.00 
 113   23:10   0.00   45.9    88    1.8   345     3.9   951.4    0.00 
 113   23:20   0.00   47.9    83    3.2     6    10.8   951.4    0.00 
 113   23:30   0.00   50.0    78    3.7    12     7.2   951.2    0.00 
 113   23:40   0.00   49.6    78    1.1    50     3.4   951.1    0.00 
 113   23:50   0.00   45.2    84    1.6   140     3.6   951.0    0.00 
 114    0:00   0.00   44.5    89    0.8    56     2.1   950.9    0.00 
 114    0:10   0.00   44.4    90    1.4   300     3.5   950.9    0.00 
 114    0:20   0.00   43.8    91    2.2   305     4.2   950.9    0.00 
 114    0:30   0.00   43.6    91    1.8    69     3.0   951.0    0.00 
 114    0:40   0.00   43.4    92    0.5    30     2.0   951.0    0.00 
 114    0:50   0.00   43.4    92    0.5   267     3.0   951.0    0.00 
 114    1:00   0.00   43.4    93    1.2   343     2.7   951.1    0.00 
 114    1:10   0.00   43.2    93    1.6    62     4.6   951.0    0.00 
 114    1:20   0.00   42.7    93    1.1    99     2.9   950.7    0.00 
 114    1:30   0.00   42.6    93    1.1    50     2.9   950.5    0.00 
 114    1:40   0.00   42.0    94    2.7   295     4.5   950.5    0.00 
 114    1:50   0.00   42.0    94    1.9   314     4.4   950.4    0.00 
 114    2:00   0.00   43.0    95    3.0   324     5.4   950.5    0.00 
 114    2:10   0.00   44.0    94    2.6   317     5.1   950.6    0.00 
 114    2:20   0.00   42.6    94    1.1   298     3.7   950.5    0.00 
 114    2:30   0.00   42.6    94    2.2   299     3.7   950.5    0.00 
 114    2:40   0.00   42.7    95    1.2   306     2.3   950.5    0.00 
 114    2:50   0.00   42.6    95    0.4    48     1.7   950.5    0.00 
 114    3:00   0.00   42.2    95    1.0    76     2.9   950.6    0.00 
 114    3:10   0.00   42.2    95    1.2   310     4.1   950.7    0.00 
 114    3:20   0.00   43.1    95    2.4   352     4.0   950.6    0.00 
 114    3:30   0.00   42.8    95    1.1    38     3.2   950.5    0.00 
 114    3:40   0.00   42.2    95    2.0    47     6.0   950.3    0.00 
 114    3:50   0.00   44.2    95    4.1    38     6.9   950.3    0.00 
 114    4:00   0.00   44.1    92    2.3   344     5.1   950.3    0.00 
 114    4:10   0.00   42.9    93    2.8   290     5.3   950.2    0.00 
 114    4:20   0.00   43.1    94    1.8   303     3.1   950.2    0.00 
 114    4:30   0.00   43.1    94    0.8   338     2.3   950.2    0.00 
 114    4:40   0.00   42.4    94    1.8   301     4.7   950.3    0.00 
 114    4:50   0.00   42.4    94    0.6    70     1.7   950.4    0.00 
 114    5:00   0.00   42.1    94    0.5    38     1.8   950.3    0.00 
 114    5:10   0.01   41.9    95    0.6   301     1.8   950.5    0.00 
 114    5:20   0.01   41.5    95    1.8    61     3.1   950.5    0.00 
 114    5:30   0.01   41.2    95    0.7   313     2.3   950.5    0.00 
 114    5:40   0.02   41.0    95    1.5   302     3.1   950.5    0.00 
 114    5:50   0.03   41.1    96    0.7   358     2.3   950.6    0.00 
 114    6:00   0.04   42.3    96    0.5   296     1.5   950.6    0.00 
 114    6:10   0.04   42.9    96    0.9     2     1.6   950.8    0.00 
 114    6:20   0.06   44.4    96    1.3   303     2.3   950.9    0.00 
 114    6:30   0.13   45.7    96    2.0   290     3.4   951.0    0.00 
 114    6:40   0.17   47.4    95    2.7   285     6.4   951.1    0.00 
 114    6:50   0.16   49.1    91    6.5   295    11.4   951.2    0.00 
 114    7:00   0.07   48.8    89    7.2   295    12.3   951.3    0.00 
 114    7:10   0.07   48.3    91    6.5   295    11.4   951.3    0.00 
 114    7:20   0.09   48.3    90    6.2   309    11.2   951.4    0.00 
 114    7:30   0.10   48.7    90    5.0   317     9.1   951.5    0.00 
 114    7:40   0.13   49.0    89    6.7   286    11.0   951.5    0.00 
 114    7:50   0.22   49.5    88    5.3   286     8.3   951.6    0.00 
 114    8:00   0.35   50.9    83    2.4   283     4.8   951.5    0.00 
 114    8:10   0.48   53.3    76    2.5   100     6.0   951.1    0.00 
 114    8:20   0.52   55.5    69    2.4    31     5.8   951.1    0.00 
 114    8:30   0.50   56.4    68    4.8   262    10.2   951.2    0.00 
 114    8:40   0.57   56.0    67    4.9   273     8.5   951.0    0.00 
 114    8:50   0.57   56.9    63    4.7   280     8.9   950.9    0.00 

Return to Blue Oak Ranch Reserve graphs page.


Western Regional Climate Center,wrcc@dri.edu